createdAt,value
2022-10-14T00:00:40.594Z,17.49
2022-10-14T00:01:42.058Z,17.51
2022-10-14T00:02:43.551Z,17.52
2022-10-14T00:03:44.974Z,17.51
2022-10-14T00:04:47.317Z,17.51
2022-10-14T00:05:48.778Z,17.50
2022-10-14T00:06:50.200Z,17.51
2022-10-14T00:07:51.672Z,17.52
2022-10-14T00:08:53.189Z,17.50
2022-10-14T00:09:54.650Z,17.52
2022-10-14T00:10:56.098Z,17.52
2022-10-14T00:11:57.534Z,17.52
2022-10-14T00:12:59.746Z,17.50
2022-10-14T00:14:02.289Z,17.49
2022-10-14T00:15:03.963Z,17.48
2022-10-14T00:16:05.610Z,17.48
2022-10-14T00:17:07.106Z,17.49
2022-10-14T00:18:08.619Z,17.50
2022-10-14T00:19:10.109Z,17.50
2022-10-14T00:20:11.885Z,17.49
2022-10-14T00:21:13.418Z,17.49
2022-10-14T00:22:14.835Z,17.50
2022-10-14T00:23:16.547Z,17.51
2022-10-14T00:24:18.851Z,17.50
2022-10-14T00:25:20.285Z,17.44
2022-10-14T00:26:23.042Z,17.39
2022-10-14T00:27:24.799Z,17.42
2022-10-14T00:28:26.256Z,17.45
2022-10-14T00:29:27.815Z,17.47
2022-10-14T00:30:29.551Z,17.48
2022-10-14T00:31:34.275Z,17.47
2022-10-14T00:32:35.790Z,17.48
2022-10-14T00:33:37.238Z,17.49
2022-10-14T00:34:38.694Z,17.52
2022-10-14T00:35:40.219Z,17.53
2022-10-14T00:36:41.926Z,17.56
2022-10-14T00:37:47.208Z,17.56
2022-10-14T00:38:48.742Z,17.57
2022-10-14T00:39:54.720Z,17.54
2022-10-14T00:40:59.146Z,17.54
2022-10-14T00:42:00.610Z,17.57
2022-10-14T00:43:02.087Z,17.57
2022-10-14T00:44:07.226Z,17.56
2022-10-14T00:45:15.055Z,17.54
2022-10-14T00:46:16.491Z,17.55
2022-10-14T00:47:18.892Z,17.50
2022-10-14T00:48:21.106Z,17.48
2022-10-14T00:49:36.175Z,17.50
2022-10-14T00:50:37.839Z,17.52
2022-10-14T00:51:39.883Z,17.51
2022-10-14T00:52:41.411Z,17.49
2022-10-14T00:53:42.986Z,17.52
2022-10-14T00:54:45.330Z,17.53
2022-10-14T00:55:46.868Z,17.54
2022-10-14T00:56:48.676Z,17.56
2022-10-14T00:57:50.147Z,17.58
2022-10-14T00:58:51.930Z,17.59
2022-10-14T00:59:54.039Z,17.54
2022-10-14T01:00:55.741Z,17.56
2022-10-14T01:01:57.322Z,17.56
2022-10-14T01:02:58.776Z,17.50
2022-10-14T01:04:00.272Z,17.53
2022-10-14T01:05:01.740Z,17.55
2022-10-14T01:06:20.926Z,17.55
2022-10-14T01:07:22.587Z,17.54
2022-10-14T01:08:27.063Z,17.54
2022-10-14T01:09:34.410Z,17.54
2022-10-14T01:10:39.610Z,17.52
2022-10-14T01:11:41.304Z,17.49
2022-10-14T01:12:47.830Z,17.48
2022-10-14T01:14:07.860Z,17.49
2022-10-14T01:15:09.284Z,17.51
2022-10-14T01:16:19.515Z,17.53
2022-10-14T01:17:28.916Z,17.56
2022-10-14T01:18:31.590Z,17.52
2022-10-14T01:19:51.896Z,17.50
2022-10-14T01:20:56.189Z,17.50
2022-10-14T01:22:01.486Z,17.46
2022-10-14T01:23:21.449Z,17.45
2022-10-14T01:24:22.885Z,17.40
2022-10-14T01:25:24.659Z,17.40
2022-10-14T01:26:29.229Z,17.41
2022-10-14T01:27:30.694Z,17.43
2022-10-14T01:28:38.281Z,17.46
2022-10-14T01:29:42.684Z,17.43
2022-10-14T01:30:44.486Z,17.42
2022-10-14T01:31:47.919Z,17.43
2022-10-14T01:32:49.454Z,17.45
2022-10-14T01:33:55.117Z,17.42
2022-10-14T01:35:02.934Z,17.43
2022-10-14T01:36:24.242Z,17.34
2022-10-14T01:37:26.535Z,17.34
2022-10-14T01:38:29.699Z,17.36
2022-10-14T01:39:36.048Z,17.38
2022-10-14T01:40:39.698Z,17.40
2022-10-14T01:41:55.494Z,17.42
2022-10-14T01:42:57.343Z,17.33
2022-10-14T01:44:00.742Z,17.36
2022-10-14T01:45:21.060Z,17.33
2022-10-14T01:46:22.899Z,17.34
2022-10-14T01:47:24.420Z,17.34
2022-10-14T01:48:33.528Z,17.35
2022-10-14T01:49:36.023Z,17.31
2022-10-14T01:50:37.478Z,17.29
2022-10-14T01:51:44.031Z,17.29
2022-10-14T01:52:50.439Z,17.30
2022-10-14T01:53:59.034Z,17.19
2022-10-14T01:55:01.787Z,17.18
2022-10-14T01:56:03.982Z,17.17
2022-10-14T01:57:07.866Z,17.16
2022-10-14T01:58:09.423Z,17.16
2022-10-14T01:59:10.871Z,17.18
2022-10-14T02:00:12.562Z,17.22
2022-10-14T02:01:17.253Z,17.24
2022-10-14T02:02:20.594Z,17.23
2022-10-14T02:03:22.417Z,17.22
2022-10-14T02:04:23.928Z,17.18
2022-10-14T02:05:38.956Z,17.11
2022-10-14T02:06:40.434Z,17.12
2022-10-14T02:07:45.736Z,17.13
2022-10-14T02:08:58.632Z,17.14
2022-10-14T02:10:18.422Z,17.15
2022-10-14T02:11:19.947Z,17.16
2022-10-14T02:12:21.757Z,17.17
2022-10-14T02:13:26.291Z,17.18
2022-10-14T02:14:32.956Z,17.21
2022-10-14T02:15:34.384Z,17.21
2022-10-14T02:16:38.258Z,17.23
2022-10-14T02:17:51.531Z,17.24
2022-10-14T02:19:01.649Z,17.24
2022-10-14T02:20:13.681Z,17.28
2022-10-14T02:21:18.098Z,17.31
2022-10-14T02:22:28.048Z,17.30
2022-10-14T02:23:33.050Z,17.28
2022-10-14T02:24:41.175Z,17.31
2022-10-14T02:25:43.518Z,17.33
2022-10-14T02:26:45.005Z,17.34
2022-10-14T02:27:46.488Z,17.36
2022-10-14T02:28:48.196Z,17.39
2022-10-14T02:29:49.666Z,17.38
2022-10-14T02:30:52.193Z,17.39
2022-10-14T02:31:53.983Z,17.37
2022-10-14T02:32:55.426Z,17.29
2022-10-14T02:33:57.896Z,17.29
2022-10-14T02:34:59.369Z,17.27
2022-10-14T02:36:02.080Z,17.28
2022-10-14T02:37:03.574Z,17.27
2022-10-14T02:38:06.923Z,17.26
2022-10-14T02:39:09.458Z,17.28
2022-10-14T02:40:13.746Z,17.28
2022-10-14T02:41:16.165Z,17.27
2022-10-14T02:42:17.768Z,17.29
2022-10-14T02:43:19.341Z,17.28
2022-10-14T02:44:23.836Z,17.26
2022-10-14T02:45:26.366Z,17.17
2022-10-14T02:46:29.046Z,17.14
2022-10-14T02:47:30.495Z,17.17
2022-10-14T02:48:31.933Z,17.15
2022-10-14T02:49:33.662Z,17.14
2022-10-14T02:50:35.132Z,17.17
2022-10-14T02:51:36.583Z,17.20
2022-10-14T02:52:38.060Z,17.21
2022-10-14T02:53:39.521Z,17.23
2022-10-14T02:54:41.043Z,17.24
2022-10-14T02:55:42.552Z,17.26
2022-10-14T02:56:43.998Z,17.28
2022-10-14T02:57:45.476Z,17.26
2022-10-14T02:58:46.976Z,17.27
2022-10-14T02:59:48.467Z,17.27
2022-10-14T03:00:49.974Z,17.29
2022-10-14T03:01:52.413Z,17.30
2022-10-14T03:02:55.646Z,17.27
2022-10-14T03:03:58.715Z,17.19
2022-10-14T03:05:00.231Z,17.18
2022-10-14T03:06:03.295Z,17.16
2022-10-14T03:07:04.795Z,17.16
2022-10-14T03:08:09.246Z,17.16
2022-10-14T03:09:12.239Z,17.16
2022-10-14T03:10:15.519Z,17.12
2022-10-14T03:11:17.263Z,17.13
2022-10-14T03:12:19.907Z,17.19
2022-10-14T03:13:22.706Z,17.20
2022-10-14T03:14:24.705Z,17.20
2022-10-14T03:15:27.003Z,17.23
2022-10-14T03:16:28.978Z,17.24
2022-10-14T03:17:30.856Z,17.22
2022-10-14T03:18:37.032Z,17.21
2022-10-14T03:19:45.811Z,17.23
2022-10-14T03:20:49.227Z,17.24
2022-10-14T03:21:56.060Z,17.26
2022-10-14T03:22:57.603Z,17.20
2022-10-14T03:23:59.098Z,17.25
2022-10-14T03:25:07.197Z,17.26
2022-10-14T03:26:15.739Z,17.24
2022-10-14T03:27:20.924Z,17.21
2022-10-14T03:28:27.008Z,17.18
2022-10-14T03:29:41.660Z,17.12
2022-10-14T03:30:52.203Z,17.07
2022-10-14T03:32:09.876Z,17.02
2022-10-14T03:33:33.717Z,17.03
2022-10-14T03:34:47.377Z,17.01
2022-10-14T03:35:54.235Z,16.98
2022-10-14T03:37:04.411Z,16.97
2022-10-14T03:38:07.310Z,16.96
2022-10-14T03:39:10.128Z,16.94
2022-10-14T03:40:25.862Z,16.88
2022-10-14T03:41:27.382Z,16.83
2022-10-14T03:42:29.411Z,16.80
2022-10-14T03:43:30.991Z,16.82
2022-10-14T03:44:33.699Z,16.88
2022-10-14T03:45:54.462Z,16.86
2022-10-14T03:46:58.457Z,16.86
2022-10-14T03:48:04.568Z,16.86
2022-10-14T03:49:06.033Z,16.86
2022-10-14T03:50:08.066Z,16.88
2022-10-14T03:51:17.947Z,16.85
2022-10-14T03:52:20.899Z,16.83
2022-10-14T03:53:33.144Z,16.82
2022-10-14T03:54:34.652Z,16.79
2022-10-14T03:55:36.197Z,16.83
2022-10-14T03:56:39.290Z,16.84
2022-10-14T03:57:40.903Z,16.79
2022-10-14T03:58:42.385Z,16.81
2022-10-14T03:59:48.031Z,16.83
2022-10-14T04:00:49.508Z,16.84
2022-10-14T04:02:03.859Z,16.87
2022-10-14T04:03:05.779Z,16.88
2022-10-14T04:04:12.364Z,16.85
2022-10-14T04:05:13.871Z,16.87
2022-10-14T04:06:17.645Z,16.86
2022-10-14T04:07:19.896Z,16.85
2022-10-14T04:08:27.458Z,16.88
2022-10-14T04:09:48.854Z,16.92
2022-10-14T04:10:53.636Z,16.95
2022-10-14T04:11:57.907Z,16.97
2022-10-14T04:13:15.754Z,17.00
2022-10-14T04:14:17.378Z,17.03
2022-10-14T04:15:23.050Z,17.04
2022-10-14T04:16:49.825Z,17.00
2022-10-14T04:17:52.343Z,16.95
2022-10-14T04:18:54.058Z,16.97
2022-10-14T04:19:57.208Z,16.99
2022-10-14T04:21:02.308Z,17.02
2022-10-14T04:22:05.339Z,17.01
2022-10-14T04:23:08.313Z,17.03
2022-10-14T04:24:10.937Z,17.06
2022-10-14T04:25:27.042Z,17.05
2022-10-14T04:26:36.785Z,17.07
2022-10-14T04:27:42.429Z,17.11
2022-10-14T04:28:44.054Z,17.06
2022-10-14T04:29:50.347Z,17.04
2022-10-14T04:30:59.583Z,17.02
2022-10-14T04:32:07.603Z,17.06
2022-10-14T04:33:10.815Z,16.98
2022-10-14T04:34:13.473Z,16.97
2022-10-14T04:35:15.320Z,16.98
2022-10-14T04:36:19.603Z,17.00
2022-10-14T04:37:21.099Z,16.98
2022-10-14T04:38:29.507Z,16.99
2022-10-14T04:39:36.315Z,16.99
2022-10-14T04:40:38.926Z,17.02
2022-10-14T04:41:41.141Z,17.03
2022-10-14T04:42:43.191Z,17.05
2022-10-14T04:43:54.186Z,17.08
2022-10-14T04:45:04.287Z,17.08
2022-10-14T04:46:17.878Z,17.06
2022-10-14T04:47:20.155Z,17.05
2022-10-14T04:48:26.655Z,17.00
2022-10-14T04:49:29.836Z,16.99
2022-10-14T04:50:42.028Z,16.93
2022-10-14T04:52:02.124Z,16.87
2022-10-14T04:53:13.416Z,16.88
2022-10-14T04:54:28.003Z,16.83
2022-10-14T04:55:31.920Z,16.81
2022-10-14T04:56:33.815Z,16.84
2022-10-14T04:57:39.625Z,16.80
2022-10-14T04:58:41.558Z,16.79
2022-10-14T04:59:44.921Z,16.80
2022-10-14T05:01:17.591Z,16.88
2022-10-14T05:02:19.395Z,16.89
2022-10-14T05:03:26.879Z,16.94
2022-10-14T05:04:28.468Z,16.94
2022-10-14T05:05:32.611Z,16.93
2022-10-14T05:06:38.130Z,16.90
2022-10-14T05:07:41.663Z,16.93
2022-10-14T05:08:59.383Z,16.86
2022-10-14T05:10:01.528Z,16.89
2022-10-14T05:11:11.267Z,16.95
2022-10-14T05:12:21.342Z,16.99
2022-10-14T05:13:28.741Z,16.97
2022-10-14T05:14:36.116Z,16.90
2022-10-14T05:15:49.310Z,16.88
2022-10-14T05:16:50.780Z,16.88
2022-10-14T05:17:58.846Z,16.88
2022-10-14T05:19:13.258Z,16.86
2022-10-14T05:20:22.654Z,16.91
2022-10-14T05:21:28.126Z,16.89
2022-10-14T05:22:37.502Z,16.88
2022-10-14T05:23:39.293Z,16.92
2022-10-14T05:24:40.883Z,16.96
2022-10-14T05:25:42.484Z,16.98
2022-10-14T05:26:44.058Z,17.01
2022-10-14T05:27:47.847Z,17.02
2022-10-14T05:28:51.287Z,16.99
2022-10-14T05:29:54.170Z,17.00
2022-10-14T05:30:55.767Z,16.99
2022-10-14T05:31:57.395Z,16.96
2022-10-14T05:33:15.178Z,16.87
2022-10-14T05:34:17.139Z,16.80
2022-10-14T05:35:29.245Z,16.82
2022-10-14T05:36:41.395Z,16.86
2022-10-14T05:37:42.951Z,16.90
2022-10-14T05:38:44.663Z,16.91
2022-10-14T05:39:46.549Z,16.93
2022-10-14T05:40:56.286Z,16.90
2022-10-14T05:41:58.090Z,16.90
2022-10-14T05:43:02.101Z,16.90
2022-10-14T05:44:04.816Z,16.90
2022-10-14T05:45:06.936Z,16.92
2022-10-14T05:46:11.722Z,16.92
2022-10-14T05:47:16.970Z,16.95
2022-10-14T05:48:21.194Z,16.98
2022-10-14T05:49:23.694Z,16.94
2022-10-14T05:50:25.268Z,16.91
2022-10-14T05:51:27.875Z,16.81
2022-10-14T05:52:37.243Z,16.85
2022-10-14T05:53:47.614Z,16.83
2022-10-14T05:54:52.731Z,16.86
2022-10-14T05:56:02.089Z,16.89
2022-10-14T05:57:03.729Z,16.91
2022-10-14T05:58:05.266Z,16.96
2022-10-14T05:59:11.098Z,16.98
2022-10-14T06:00:14.064Z,16.98
2022-10-14T06:01:26.231Z,16.99
2022-10-14T06:02:27.729Z,17.00
2022-10-14T06:03:29.317Z,17.02
2022-10-14T06:04:31.254Z,17.04
2022-10-14T06:05:35.039Z,17.04
2022-10-14T06:06:37.244Z,17.06
2022-10-14T06:07:38.682Z,17.03
2022-10-14T06:08:40.308Z,17.01
2022-10-14T06:09:41.754Z,17.00
2022-10-14T06:10:43.987Z,17.03
2022-10-14T06:11:45.585Z,17.04
2022-10-14T06:12:47.263Z,17.06
2022-10-14T06:13:48.751Z,17.06
2022-10-14T06:14:51.419Z,17.08
2022-10-14T06:15:53.664Z,17.08
2022-10-14T06:16:55.691Z,17.08
2022-10-14T06:17:58.360Z,17.01
2022-10-14T06:19:01.158Z,17.04
2022-10-14T06:20:03.151Z,17.05
2022-10-14T06:21:04.915Z,17.08
2022-10-14T06:22:06.397Z,17.10
2022-10-14T06:23:07.960Z,17.09
2022-10-14T06:24:09.416Z,17.07
2022-10-14T06:25:10.908Z,17.07
2022-10-14T06:26:12.415Z,17.08
2022-10-14T06:27:13.834Z,17.10
2022-10-14T06:28:15.455Z,17.10
2022-10-14T06:29:17.076Z,17.10
2022-10-14T06:30:18.546Z,17.12
2022-10-14T06:31:20.858Z,17.13
2022-10-14T06:32:22.656Z,17.17
2022-10-14T06:33:24.411Z,17.13
2022-10-14T06:34:25.938Z,17.05
2022-10-14T06:35:27.399Z,17.07
2022-10-14T06:36:28.911Z,17.04
2022-10-14T06:37:30.402Z,17.04
2022-10-14T06:38:31.954Z,17.04
2022-10-14T06:39:33.387Z,17.02
2022-10-14T06:40:35.728Z,17.01
2022-10-14T06:41:37.266Z,16.99
2022-10-14T06:42:38.908Z,16.94
2022-10-14T06:43:40.406Z,16.99
2022-10-14T06:44:41.954Z,17.00
2022-10-14T06:45:43.472Z,16.96
2022-10-14T06:46:45.131Z,16.96
2022-10-14T06:47:46.919Z,16.96
2022-10-14T06:48:50.444Z,16.96
2022-10-14T06:49:52.162Z,16.99
2022-10-14T06:50:53.650Z,17.00
2022-10-14T06:52:00.343Z,17.05
2022-10-14T06:53:03.993Z,17.08
2022-10-14T06:54:05.530Z,17.03
2022-10-14T06:55:07.139Z,16.94
2022-10-14T06:56:09.368Z,16.99
2022-10-14T06:57:10.931Z,17.01
2022-10-14T06:58:12.943Z,17.01
2022-10-14T06:59:14.368Z,17.01
2022-10-14T07:00:16.212Z,17.01
2022-10-14T07:01:17.758Z,17.04
2022-10-14T07:02:19.778Z,17.02
2022-10-14T07:03:21.646Z,17.01
2022-10-14T07:04:23.112Z,17.03
2022-10-14T07:05:24.667Z,17.04
2022-10-14T07:06:26.138Z,17.06
2022-10-14T07:07:27.591Z,17.00
2022-10-14T07:08:29.071Z,16.99
2022-10-14T07:09:30.544Z,17.04
2022-10-14T07:10:32.047Z,17.06
2022-10-14T07:11:33.483Z,17.09
2022-10-14T07:12:34.938Z,17.13
2022-10-14T07:13:37.773Z,17.14
2022-10-14T07:14:39.250Z,17.17
2022-10-14T07:15:40.704Z,17.17
2022-10-14T07:16:45.169Z,17.21
2022-10-14T07:17:46.784Z,17.23
2022-10-14T07:18:48.534Z,17.25
2022-10-14T07:19:50.207Z,17.20
2022-10-14T07:20:51.671Z,17.22
2022-10-14T07:21:53.200Z,17.22
2022-10-14T07:22:55.188Z,17.26
2022-10-14T07:23:56.986Z,17.30
2022-10-14T07:24:58.418Z,17.32
2022-10-14T07:26:00.041Z,17.34
2022-10-14T07:28:08.171Z,17.36
2022-10-14T07:29:09.631Z,17.38
2022-10-14T07:30:13.820Z,17.38
2022-10-14T07:31:18.280Z,17.32
2022-10-14T07:32:19.739Z,17.34
2022-10-14T07:33:21.164Z,17.35
2022-10-14T07:34:22.622Z,17.31
2022-10-14T07:35:25.623Z,17.31
2022-10-14T07:36:27.089Z,17.28
2022-10-14T07:37:28.786Z,17.29
2022-10-14T07:38:30.589Z,17.32
2022-10-14T07:39:32.075Z,17.35
2022-10-14T07:40:33.664Z,17.39
2022-10-14T07:41:35.183Z,17.38
2022-10-14T07:42:36.651Z,17.36
2022-10-14T07:43:38.094Z,17.36
2022-10-14T07:44:39.934Z,17.34
2022-10-14T07:45:43.920Z,17.34
2022-10-14T07:46:45.447Z,17.35
2022-10-14T07:47:47.160Z,17.36
2022-10-14T07:48:59.245Z,17.40
2022-10-14T07:50:01.630Z,17.38
2022-10-14T07:51:03.152Z,17.38
2022-10-14T07:52:04.706Z,17.40
2022-10-14T07:53:06.183Z,17.42
2022-10-14T07:54:11.147Z,17.44
2022-10-14T07:55:12.672Z,17.47
2022-10-14T07:56:14.355Z,17.49
2022-10-14T07:57:16.652Z,17.51
2022-10-14T07:58:21.966Z,17.51
2022-10-14T07:59:23.431Z,17.52
2022-10-14T08:00:24.910Z,17.54
2022-10-14T08:01:26.512Z,17.52
2022-10-14T08:02:29.080Z,17.55
2022-10-14T08:03:30.619Z,17.56
2022-10-14T08:04:32.119Z,17.57
2022-10-14T08:05:38.277Z,17.56
2022-10-14T08:06:40.438Z,17.54
2022-10-14T08:07:41.884Z,17.52
2022-10-14T08:08:44.145Z,17.52
2022-10-14T08:09:45.854Z,17.54
2022-10-14T08:10:47.307Z,17.53
2022-10-14T08:11:48.816Z,17.56
2022-10-14T08:12:51.237Z,17.54
2022-10-14T08:13:52.898Z,17.51
2022-10-14T08:14:57.964Z,17.51
2022-10-14T08:15:59.384Z,17.53
2022-10-14T08:17:00.811Z,17.56
2022-10-14T08:18:02.506Z,17.59
2022-10-14T08:19:08.493Z,17.60
2022-10-14T08:20:12.676Z,17.56
2022-10-14T08:21:14.363Z,17.50
2022-10-14T08:22:15.789Z,17.52
2022-10-14T08:23:19.100Z,17.54
2022-10-14T08:24:21.894Z,17.56
2022-10-14T08:25:23.494Z,17.60
2022-10-14T08:26:43.235Z,17.61
2022-10-14T08:27:44.780Z,17.61
2022-10-14T08:28:46.797Z,17.57
2022-10-14T08:29:48.401Z,17.56
2022-10-14T08:30:50.286Z,17.58
2022-10-14T08:31:52.453Z,17.60
2022-10-14T08:32:53.996Z,17.56
2022-10-14T08:33:55.473Z,17.58
2022-10-14T08:34:56.990Z,17.50
2022-10-14T08:35:58.410Z,17.54
2022-10-14T08:36:59.858Z,17.58
2022-10-14T08:38:01.793Z,17.59
2022-10-14T08:39:03.522Z,17.43
2022-10-14T08:40:05.336Z,17.45
2022-10-14T08:41:13.024Z,17.41
2022-10-14T08:42:16.187Z,17.46
2022-10-14T08:43:19.764Z,17.48
2022-10-14T08:44:25.419Z,17.50
2022-10-14T08:45:30.484Z,17.55
2022-10-14T08:46:45.701Z,17.59
2022-10-14T08:47:49.465Z,17.57
2022-10-14T08:48:51.410Z,17.58
2022-10-14T08:49:54.794Z,17.57
2022-10-14T08:51:07.549Z,17.61
2022-10-14T08:52:10.463Z,17.61
2022-10-14T08:53:11.891Z,17.62
2022-10-14T08:54:15.522Z,17.59
2022-10-14T08:55:22.714Z,17.62
2022-10-14T08:56:24.428Z,17.68
2022-10-14T08:57:26.795Z,17.71
2022-10-14T08:58:31.774Z,17.77
2022-10-14T08:59:34.518Z,17.80
2022-10-14T09:00:35.953Z,17.79
2022-10-14T09:01:40.382Z,17.83
2022-10-14T09:02:48.570Z,17.84
2022-10-14T09:03:50.871Z,17.88
2022-10-14T09:04:52.306Z,17.84
2022-10-14T09:05:57.717Z,17.86
2022-10-14T09:06:59.147Z,17.85
2022-10-14T09:08:00.658Z,17.83
2022-10-14T09:09:14.528Z,17.85
2022-10-14T09:10:18.732Z,17.82
2022-10-14T09:11:20.847Z,17.82
2022-10-14T09:12:26.455Z,17.86
2022-10-14T09:13:47.212Z,17.90
2022-10-14T09:15:11.579Z,17.90
2022-10-14T09:16:22.983Z,17.91
2022-10-14T09:17:25.599Z,17.85
2022-10-14T09:18:28.680Z,17.75
2022-10-14T09:19:34.897Z,17.72
2022-10-14T09:20:36.374Z,17.73
2022-10-14T09:21:52.243Z,17.76
2022-10-14T09:22:57.740Z,17.72
2022-10-14T09:24:16.668Z,17.73
2022-10-14T09:25:18.211Z,17.73
2022-10-14T09:26:19.666Z,17.77
2022-10-14T09:27:22.072Z,17.74
2022-10-14T09:28:27.039Z,17.78
2022-10-14T09:29:29.262Z,17.80
2022-10-14T09:30:30.799Z,17.86
2022-10-14T09:32:41.750Z,17.95
2022-10-14T09:33:43.226Z,17.98
2022-10-14T09:34:45.338Z,18.00
2022-10-14T09:35:46.848Z,18.00
2022-10-14T09:36:48.438Z,17.98
2022-10-14T09:37:50.034Z,17.92
2022-10-14T09:38:52.733Z,17.94
2022-10-14T09:39:56.058Z,17.92
2022-10-14T09:40:58.636Z,17.92
2022-10-14T09:42:00.105Z,17.86
2022-10-14T09:43:10.538Z,17.89
2022-10-14T09:44:25.754Z,17.90
2022-10-14T09:45:28.183Z,17.93
2022-10-14T09:46:29.630Z,17.93
2022-10-14T09:47:31.120Z,17.92
2022-10-14T09:48:34.072Z,17.95
2022-10-14T09:49:45.767Z,17.96
2022-10-14T09:50:51.737Z,17.98
2022-10-14T09:51:53.219Z,17.93
2022-10-14T09:52:55.978Z,17.90
2022-10-14T09:53:57.952Z,17.94
2022-10-14T09:55:00.108Z,17.94
2022-10-14T09:56:02.822Z,17.96
2022-10-14T09:57:08.069Z,17.98
2022-10-14T09:58:14.112Z,18.00
2022-10-14T09:59:21.804Z,18.02
2022-10-14T10:00:27.227Z,18.05
2022-10-14T10:01:51.779Z,18.07
2022-10-14T10:02:55.214Z,18.07
2022-10-14T10:03:56.849Z,18.09
2022-10-14T10:04:58.823Z,18.11
2022-10-14T10:06:04.302Z,18.10
2022-10-14T10:07:07.334Z,18.07
2022-10-14T10:08:14.650Z,18.06
2022-10-14T10:09:19.345Z,18.12
2022-10-14T10:10:21.216Z,18.16
2022-10-14T10:11:29.759Z,18.19
2022-10-14T10:12:32.105Z,18.22
2022-10-14T10:13:38.331Z,18.22
2022-10-14T10:14:39.777Z,18.22
2022-10-14T10:15:41.615Z,18.24
2022-10-14T10:16:43.114Z,18.26
2022-10-14T10:17:46.011Z,18.20
2022-10-14T10:18:47.923Z,18.22
2022-10-14T10:19:51.721Z,18.25
2022-10-14T10:21:06.839Z,18.26
2022-10-14T10:22:24.371Z,18.28
2022-10-14T10:23:25.803Z,18.24
2022-10-14T10:24:30.191Z,18.24
2022-10-14T10:25:32.483Z,18.24
2022-10-14T10:26:34.102Z,18.22
2022-10-14T10:27:36.642Z,18.23
2022-10-14T10:28:38.171Z,18.27
2022-10-14T10:29:39.663Z,18.28
2022-10-14T10:31:13.745Z,18.31
2022-10-14T10:32:42.568Z,18.35
2022-10-14T10:33:55.784Z,18.32
2022-10-14T10:35:03.034Z,18.28
2022-10-14T10:36:21.422Z,18.21
2022-10-14T10:37:26.830Z,18.22
2022-10-14T10:38:32.502Z,18.17
2022-10-14T10:40:00.059Z,18.19
2022-10-14T10:41:09.867Z,18.24
2022-10-14T10:42:21.469Z,18.29
2022-10-14T10:43:49.132Z,18.29
2022-10-14T10:44:58.867Z,18.19
2022-10-14T10:46:23.654Z,18.21
2022-10-14T10:47:25.150Z,18.19
2022-10-14T10:48:55.892Z,18.21
2022-10-14T10:50:12.329Z,18.13
2022-10-14T10:51:16.556Z,18.11
2022-10-14T10:52:41.251Z,18.08
2022-10-14T10:53:49.794Z,18.12
2022-10-14T10:55:10.267Z,18.06
2022-10-14T10:56:34.965Z,18.11
2022-10-14T10:57:56.763Z,18.20
2022-10-14T10:59:10.462Z,18.19
2022-10-14T11:00:12.195Z,18.24
2022-10-14T11:01:26.118Z,18.27
2022-10-14T11:02:27.722Z,18.28
2022-10-14T11:03:49.040Z,18.24
2022-10-14T11:04:51.251Z,18.29
2022-10-14T11:06:01.982Z,18.35
2022-10-14T11:07:34.114Z,18.38
2022-10-14T11:09:05.960Z,18.40
2022-10-14T11:10:31.533Z,18.42
2022-10-14T11:11:51.664Z,18.35
2022-10-14T11:13:05.786Z,18.36
2022-10-14T11:14:12.988Z,18.32
2022-10-14T11:15:23.951Z,18.36
2022-10-14T11:16:46.543Z,18.34
2022-10-14T11:18:06.475Z,18.31
2022-10-14T11:19:14.608Z,18.28
2022-10-14T11:20:27.808Z,18.28
2022-10-14T11:21:29.361Z,18.27
2022-10-14T11:23:09.561Z,18.29
2022-10-14T11:24:13.761Z,18.34
2022-10-14T11:25:15.322Z,18.34
2022-10-14T11:26:22.888Z,18.35
2022-10-14T11:27:32.054Z,18.33
2022-10-14T11:28:52.021Z,18.31
2022-10-14T11:30:14.039Z,18.30
2022-10-14T11:31:28.577Z,18.34
2022-10-14T11:32:37.985Z,18.34
2022-10-14T11:34:12.542Z,18.37
2022-10-14T11:35:18.033Z,18.36
2022-10-14T11:36:22.641Z,18.37
2022-10-14T11:37:38.906Z,18.41
2022-10-14T11:38:44.231Z,18.46
2022-10-14T11:39:53.001Z,18.47
2022-10-14T11:40:59.807Z,18.44
2022-10-14T11:42:04.914Z,18.43
2022-10-14T11:43:07.055Z,18.39
2022-10-14T11:44:08.550Z,18.44
2022-10-14T11:45:17.284Z,18.46
2022-10-14T11:46:22.236Z,18.38
2022-10-14T11:47:25.078Z,18.39
2022-10-14T11:48:29.458Z,18.41
2022-10-14T11:49:36.807Z,18.35
2022-10-14T11:50:40.187Z,18.36
2022-10-14T11:52:04.742Z,18.32
2022-10-14T11:53:23.136Z,18.34
2022-10-14T11:54:28.560Z,18.37
2022-10-14T11:55:32.392Z,18.37
2022-10-14T11:56:39.811Z,18.38
2022-10-14T11:57:42.613Z,18.37
2022-10-14T11:58:44.047Z,18.38
2022-10-14T12:00:16.679Z,18.41
2022-10-14T12:01:38.190Z,18.34
2022-10-14T12:02:49.591Z,18.35
2022-10-14T12:04:04.673Z,18.35
2022-10-14T12:05:08.769Z,18.36
2022-10-14T12:06:16.492Z,18.38
2022-10-14T12:07:18.806Z,18.38
2022-10-14T12:08:41.126Z,18.39
2022-10-14T12:09:43.237Z,18.35
2022-10-14T12:10:45.891Z,18.34
2022-10-14T12:11:50.480Z,18.38
2022-10-14T12:12:51.976Z,18.43
2022-10-14T12:13:54.742Z,18.48
2022-10-14T12:15:00.220Z,18.52
2022-10-14T12:16:01.672Z,18.57
2022-10-14T12:17:26.364Z,18.58
2022-10-14T12:18:28.513Z,18.60
2022-10-14T12:19:30.098Z,18.62
2022-10-14T12:20:34.549Z,18.64
2022-10-14T12:21:38.674Z,18.63
2022-10-14T12:22:40.201Z,18.62
2022-10-14T12:23:48.418Z,18.63
2022-10-14T12:24:50.963Z,18.63
2022-10-14T12:26:06.902Z,18.60
2022-10-14T12:27:10.334Z,18.59
2022-10-14T12:28:11.859Z,18.52
2022-10-14T12:29:14.330Z,18.46
2022-10-14T12:30:44.866Z,18.49
2022-10-14T12:31:50.365Z,18.52
2022-10-14T12:33:00.766Z,18.49
2022-10-14T12:34:11.595Z,18.46
2022-10-14T12:35:36.367Z,18.42
2022-10-14T12:36:38.198Z,18.46
2022-10-14T12:37:42.877Z,18.47
2022-10-14T12:38:44.371Z,18.49
2022-10-14T12:39:45.803Z,18.47
2022-10-14T12:40:50.773Z,18.52
2022-10-14T12:41:55.812Z,18.60
2022-10-14T12:42:58.443Z,18.59
2022-10-14T12:44:00.746Z,18.61
2022-10-14T12:45:03.127Z,18.66
2022-10-14T12:46:10.888Z,18.66
2022-10-14T12:47:15.870Z,18.63
2022-10-14T12:48:20.798Z,18.67
2022-10-14T12:49:22.211Z,18.62
2022-10-14T12:50:30.705Z,18.57
2022-10-14T12:51:32.179Z,18.56
2022-10-14T12:52:35.755Z,18.54
2022-10-14T12:53:37.671Z,18.56
2022-10-14T12:54:40.033Z,18.54
2022-10-14T12:55:48.997Z,18.54
2022-10-14T12:56:57.387Z,18.56
2022-10-14T12:57:59.575Z,18.60
2022-10-14T12:59:01.895Z,18.63
2022-10-14T13:00:21.548Z,18.65
2022-10-14T13:01:23.104Z,18.68
2022-10-14T13:02:24.878Z,18.67
2022-10-14T13:03:27.525Z,18.60
2022-10-14T13:04:29.010Z,18.59
2022-10-14T13:05:36.902Z,18.61
2022-10-14T13:06:39.914Z,18.67
2022-10-14T13:07:42.492Z,18.67
2022-10-14T13:08:44.283Z,18.71
2022-10-14T13:09:45.749Z,18.75
2022-10-14T13:10:58.963Z,18.79
2022-10-14T13:12:00.360Z,18.82
2022-10-14T13:13:26.183Z,18.85
2022-10-14T13:14:31.182Z,18.79
2022-10-14T13:15:36.572Z,18.76
2022-10-14T13:16:38.118Z,18.80
2022-10-14T13:17:44.698Z,18.86
2022-10-14T13:18:46.127Z,18.84
2022-10-14T13:19:47.646Z,18.80
2022-10-14T13:20:49.994Z,18.85
2022-10-14T13:21:52.599Z,18.88
2022-10-14T13:22:54.023Z,18.93
2022-10-14T13:23:55.512Z,18.97
2022-10-14T13:25:07.875Z,18.97
2022-10-14T13:26:09.288Z,19.02
2022-10-14T13:27:32.390Z,19.01
2022-10-14T13:28:36.289Z,18.92
2022-10-14T13:29:47.020Z,18.92
2022-10-14T13:30:51.167Z,18.95
2022-10-14T13:32:10.994Z,19.01
2022-10-14T13:33:12.504Z,18.99
2022-10-14T13:34:20.076Z,18.98
2022-10-14T13:35:24.138Z,19.00
2022-10-14T13:36:36.899Z,19.01
2022-10-14T13:37:44.806Z,18.99
2022-10-14T13:38:51.859Z,18.97
2022-10-14T13:39:53.521Z,18.97
2022-10-14T13:40:55.349Z,18.97
2022-10-14T13:41:56.805Z,18.97
2022-10-14T13:42:58.723Z,19.01
2022-10-14T13:44:00.247Z,19.02
2022-10-14T13:45:09.837Z,18.91
2022-10-14T13:46:30.062Z,18.95
2022-10-14T13:47:31.544Z,19.01
2022-10-14T13:48:37.400Z,18.96
2022-10-14T13:49:40.462Z,19.02
2022-10-14T13:50:41.969Z,19.01
2022-10-14T13:51:43.774Z,19.06
2022-10-14T13:52:55.621Z,18.98
2022-10-14T13:53:58.000Z,18.98
2022-10-14T13:55:10.811Z,19.01
2022-10-14T13:56:16.061Z,19.05
2022-10-14T13:57:43.069Z,19.10
2022-10-14T13:58:39.063Z,19.07
2022-10-14T14:00:19.177Z,19.08
2022-10-14T14:01:14.099Z,19.06
2022-10-14T14:02:16.505Z,19.05
2022-10-14T14:03:22.900Z,19.05
2022-10-14T14:04:25.295Z,18.99
2022-10-14T14:05:34.882Z,19.01